Time;durP1;ratioP1;P1;durP2;ratioP2;P2;SDS_P1;SDS_P2;PMS_P1;PMS_P2;Temp;Humidity;BMP_temperature;BMP_pressure;BME280_temperature;BME280_humidity;BME280_pressure;Samples;Min_cycle;Max_cycle;Signal;HPM_P1;HPM_P2
2022/03/10 00:02:08;;;;;;;;;;;6.90;77.20;;;;;;5052946;28;20017;-60
2022/03/10 00:04:35;;;;;;;;;;;6.80;77.30;;;;;;5035647;28;20354;-62
2022/03/10 00:07:02;;;;;;;;;;;6.80;77.30;;;;;;5035666;28;19916;-60
2022/03/10 00:09:28;;;;;;;;;;;6.80;77.60;;;;;;5034956;28;19909;-60
2022/03/10 00:11:54;;;;;;;;;;;6.70;77.60;;;;;;5052396;28;19924;-61
2022/03/10 00:14:19;;;;;;;;;;;6.80;77.60;;;;;;5036243;28;19913;-61
2022/03/10 00:16:45;;;;;;;;;;;6.70;77.60;;;;;;5053362;28;19916;-65
2022/03/10 00:19:12;;;;;;;;;;;6.70;77.90;;;;;;5034824;28;19909;-61
2022/03/10 00:21:38;;;;;;;;;;;6.50;78.00;;;;;;5053533;28;19909;-60
2022/03/10 00:24:04;;;;;;;;;;;6.60;78.00;;;;;;5052538;28;19963;-60
2022/03/10 00:26:29;;;;;;;;;;;6.50;78.20;;;;;;5053202;28;19917;-61
2022/03/10 00:28:54;;;;;;;;;;;6.50;78.50;;;;;;5052507;28;20331;-61
2022/03/10 00:31:20;;;;;;;;;;;6.60;78.80;;;;;;5052962;28;19909;-60
2022/03/10 00:33:46;;;;;;;;;;;6.60;79.10;;;;;;5035076;28;20324;-65
2022/03/10 00:36:11;;;;;;;;;;;6.50;79.10;;;;;;5035147;28;19999;-60
2022/03/10 00:38:37;;;;;;;;;;;6.50;79.10;;;;;;5054960;28;19909;-63
2022/03/10 00:41:02;;;;;;;;;;;6.50;79.20;;;;;;5052013;28;19909;-60
2022/03/10 00:43:27;;;;;;;;;;;6.50;79.20;;;;;;5035066;28;19909;-60
2022/03/10 00:45:53;;;;;;;;;;;6.50;79.20;;;;;;5052515;28;20389;-73
2022/03/10 00:48:19;;;;;;;;;;;6.50;79.20;;;;;;5052292;28;19962;-60
2022/03/10 00:50:44;;;;;;;;;;;6.50;79.00;;;;;;5052670;28;19943;-60
2022/03/10 00:53:10;;;;;;;;;;;6.40;78.90;;;;;;5052036;28;19924;-60
2022/03/10 00:55:36;;;;;;;;;;;6.40;79.20;;;;;;5052340;28;20030;-60
2022/03/10 00:58:01;;;;;;;;;;;6.40;79.40;;;;;;5051688;28;20329;-59
2022/03/10 01:00:28;;;;;;;;;;;6.30;79.20;;;;;;5052549;28;20243;-62
2022/03/10 01:02:55;;;;;;;;;;;6.30;79.10;;;;;;5052470;28;19959;-73
2022/03/10 01:05:21;;;;;;;;;;;6.30;79.00;;;;;;5052780;28;19913;-60
2022/03/10 01:07:46;;;;;;;;;;;6.30;78.60;;;;;;5052660;28;19915;-60
2022/03/10 01:10:13;;;;;;;;;;;6.40;78.40;;;;;;5051820;28;19909;-60
2022/03/10 01:12:41;;;;;;;;;;;6.30;78.70;;;;;;5035016;28;19999;-61
2022/03/10 01:15:08;;;;;;;;;;;6.30;78.70;;;;;;5052042;28;19912;-61
2022/03/10 01:17:33;;;;;;;;;;;6.30;79.00;;;;;;5052491;28;19908;-65
2022/03/10 01:19:59;;;;;;;;;;;6.30;79.10;;;;;;5052837;28;20003;-64
2022/03/10 01:22:24;;;;;;;;;;;6.20;79.00;;;;;;5056713;28;19908;-60
2022/03/10 01:24:50;;;;;;;;;;;6.30;78.60;;;;;;5046571;28;19932;-59
2022/03/10 01:27:15;;;;;;;;;;;6.30;78.40;;;;;;5075650;28;19974;-60
2022/03/10 01:29:41;;;;;;;;;;;6.30;78.20;;;;;;5075707;28;19915;-59
2022/03/10 01:32:07;;;;;;;;;;;6.30;77.90;;;;;;5075327;28;19916;-60
2022/03/10 01:34:32;;;;;;;;;;;6.30;78.00;;;;;;5076238;28;19913;-65
2022/03/10 01:36:58;;;;;;;;;;;6.30;78.10;;;;;;5057381;28;19962;-60
2022/03/10 01:39:24;;;;;;;;;;;6.30;78.00;;;;;;5075785;28;19952;-62
2022/03/10 01:41:49;;;;;;;;;;;6.20;77.60;;;;;;5075659;28;19909;-60
2022/03/10 01:44:15;;;;;;;;;;;6.10;77.70;;;;;;5075529;28;20261;-60
2022/03/10 01:46:41;;;;;;;;;;;6.10;77.60;;;;;;5057810;28;20266;-60
2022/03/10 01:49:07;;;;;;;;;;;6.00;77.90;;;;;;5075056;28;19908;-64
2022/03/10 01:51:34;;;;;;;;;;;6.10;78.30;;;;;;5058183;28;20263;-61
2022/03/10 01:54:00;;;;;;;;;;;6.00;78.30;;;;;;5075506;28;19939;-62
2022/03/10 01:56:26;;;;;;;;;;;6.00;78.50;;;;;;5058017;28;19912;-60
2022/03/10 01:58:52;;;;;;;;;;;6.00;78.80;;;;;;5060693;28;19908;-61
2022/03/10 02:01:21;;;;;;;;;;;6.00;78.80;;;;;;5095256;28;19908;-64
2022/03/10 02:03:51;;;;;;;;;;;6.00;78.70;;;;;;5077650;28;19908;-61
2022/03/10 02:06:22;;;;;;;;;;;6.00;78.70;;;;;;5095273;28;19957;-60
2022/03/10 02:12:07;;;;;;;;;;;5.90;78.60;;;;;;5095897;28;19978;-60
2022/03/10 02:17:24;;;;;;;;;;;5.80;79.40;;;;;;5096441;28;19919;-59
2022/03/10 02:19:52;;;;;;;;;;;5.90;79.50;;;;;;5077456;28;19909;-60
2022/03/10 02:22:28;;;;;;;;;;;5.70;79.60;;;;;;5095006;28;20267;-60
2022/03/10 02:25:12;;;;;;;;;;;5.60;79.40;;;;;;5095152;28;19934;-61
2022/03/10 02:27:42;;;;;;;;;;;5.70;79.80;;;;;;5095209;28;19995;-61
2022/03/10 02:30:10;;;;;;;;;;;5.70;79.80;;;;;;5094931;28;19908;-69
2022/03/10 02:32:42;;;;;;;;;;;5.60;80.10;;;;;;5095121;28;19912;-61
2022/03/10 02:35:17;;;;;;;;;;;5.60;80.30;;;;;;5068570;28;20309;-61
2022/03/10 02:37:56;;;;;;;;;;;5.80;80.10;;;;;;5032348;28;19910;-59
2022/03/10 02:40:24;;;;;;;;;;;5.70;80.40;;;;;;5032103;28;19916;-60
2022/03/10 02:42:50;;;;;;;;;;;5.70;80.70;;;;;;5032454;28;19909;-65
2022/03/10 02:45:16;;;;;;;;;;;5.60;80.70;;;;;;5032071;28;19909;-59
2022/03/10 02:47:49;;;;;;;;;;;5.60;80.70;;;;;;5032172;28;20469;-59
2022/03/10 02:50:23;;;;;;;;;;;5.60;80.70;;;;;;5031596;28;19915;-60
2022/03/10 02:52:50;;;;;;;;;;;5.60;80.80;;;;;;5032209;28;20290;-60
2022/03/10 02:55:19;;;;;;;;;;;5.50;81.00;;;;;;5031626;28;19952;-62
2022/03/10 02:57:45;;;;;;;;;;;5.60;81.30;;;;;;5036167;28;19968;-58
2022/03/10 03:00:18;;;;;;;;;;;5.50;81.20;;;;;;5051512;28;20000;-62
2022/03/10 03:02:47;;;;;;;;;;;5.50;81.10;;;;;;5052794;28;20013;-61
2022/03/10 03:05:22;;;;;;;;;;;5.50;81.20;;;;;;5051569;28;20382;-61
2022/03/10 03:07:57;;;;;;;;;;;5.50;81.20;;;;;;5052008;28;19908;-60
2022/03/10 03:10:28;;;;;;;;;;;5.50;81.10;;;;;;5051320;28;19913;-61
2022/03/10 03:12:56;;;;;;;;;;;5.50;81.20;;;;;;5051813;28;20298;-60
2022/03/10 03:15:23;;;;;;;;;;;5.40;81.20;;;;;;5046152;28;20098;-62
2022/03/10 03:17:49;;;;;;;;;;;5.40;81.30;;;;;;5015844;28;19944;-62
2022/03/10 03:20:15;;;;;;;;;;;5.30;81.20;;;;;;5031819;28;19922;-60
2022/03/10 03:22:43;;;;;;;;;;;5.10;81.80;;;;;;5031855;28;19917;-60
2022/03/10 03:25:11;;;;;;;;;;;5.20;81.90;;;;;;5031092;28;20483;-62
2022/03/10 03:27:37;;;;;;;;;;;5.20;81.40;;;;;;5016536;28;19909;-60
2022/03/10 03:30:05;;;;;;;;;;;5.20;81.60;;;;;;5051116;28;20043;-74
2022/03/10 03:32:33;;;;;;;;;;;5.20;81.50;;;;;;5051382;28;19913;-60
2022/03/10 03:35:00;;;;;;;;;;;5.20;81.50;;;;;;5051401;28;19913;-65
2022/03/10 03:37:27;;;;;;;;;;;5.20;81.60;;;;;;5051234;28;19909;-61
2022/03/10 03:39:57;;;;;;;;;;;5.30;81.30;;;;;;5051424;28;19909;-60
2022/03/10 03:42:32;;;;;;;;;;;5.20;81.20;;;;;;5051104;28;19919;-64
2022/03/10 03:45:11;;;;;;;;;;;5.10;81.70;;;;;;5034162;28;19909;-65
2022/03/10 03:47:42;;;;;;;;;;;5.10;82.00;;;;;;5051509;28;19963;-60
2022/03/10 03:50:09;;;;;;;;;;;5.20;81.70;;;;;;5050706;28;19916;-61
2022/03/10 03:52:36;;;;;;;;;;;5.20;81.40;;;;;;5051463;28;19970;-64
2022/03/10 03:55:05;;;;;;;;;;;5.10;81.50;;;;;;5053279;28;19919;-60
2022/03/10 03:57:31;;;;;;;;;;;5.10;81.70;;;;;;5052060;28;19909;-62
2022/03/10 03:59:58;;;;;;;;;;;4.90;82.20;;;;;;5052130;28;19916;-66
2022/03/10 04:02:26;;;;;;;;;;;5.00;82.40;;;;;;5053077;28;19913;-62
2022/03/10 04:04:56;;;;;;;;;;;5.00;82.20;;;;;;5053725;28;20350;-61
2022/03/10 04:07:24;;;;;;;;;;;5.00;82.20;;;;;;5052893;28;19908;-65
2022/03/10 04:09:50;;;;;;;;;;;5.00;81.90;;;;;;5053618;28;19908;-60
2022/03/10 04:12:27;;;;;;;;;;;4.90;82.10;;;;;;5051744;28;19920;-60
2022/03/10 04:15:00;;;;;;;;;;;4.90;82.40;;;;;;5053042;28;20479;-60
2022/03/10 04:17:34;;;;;;;;;;;4.90;82.40;;;;;;5051100;28;19913;-65
2022/03/10 04:20:08;;;;;;;;;;;4.80;82.30;;;;;;5053474;28;19913;-60
2022/03/10 04:22:39;;;;;;;;;;;4.90;82.30;;;;;;5052891;28;20051;-61
2022/03/10 04:25:12;;;;;;;;;;;4.90;82.50;;;;;;5054355;28;20034;-70
2022/03/10 04:27:40;;;;;;;;;;;4.90;82.70;;;;;;5073213;28;19915;-60
2022/03/10 04:30:07;;;;;;;;;;;4.80;82.90;;;;;;5111799;28;19912;-72
2022/03/10 04:32:43;;;;;;;;;;;4.70;82.80;;;;;;5095284;28;19916;-60
2022/03/10 04:35:12;;;;;;;;;;;4.80;83.00;;;;;;5095506;28;20361;-63
2022/03/10 04:37:43;;;;;;;;;;;4.80;83.10;;;;;;5096200;28;19922;-65
2022/03/10 04:40:13;;;;;;;;;;;4.70;83.20;;;;;;5095425;28;19930;-64
2022/03/10 04:42:47;;;;;;;;;;;4.70;83.30;;;;;;5114141;28;19953;-64
2022/03/10 04:45:19;;;;;;;;;;;4.70;83.30;;;;;;5114200;28;19907;-63
2022/03/10 04:48:06;;;;;;;;;;;4.70;83.30;;;;;;5114129;28;19911;-62
2022/03/10 04:50:36;;;;;;;;;;;4.70;83.20;;;;;;5114540;28;19917;-65
2022/03/10 04:53:03;;;;;;;;;;;4.70;83.30;;;;;;5095343;28;19926;-60
2022/03/10 04:55:29;;;;;;;;;;;4.70;83.10;;;;;;5114169;28;19916;-61
2022/03/10 04:57:55;;;;;;;;;;;4.70;83.20;;;;;;5117360;28;19918;-60
2022/03/10 05:00:22;;;;;;;;;;;4.60;83.40;;;;;;5058580;28;19944;-60
2022/03/10 05:02:58;;;;;;;;;;;4.60;83.50;;;;;;5076349;28;19953;-60
2022/03/10 05:05:29;;;;;;;;;;;4.70;83.70;;;;;;5076623;28;19912;-64
2022/03/10 05:08:17;;;;;;;;;;;4.60;83.90;;;;;;5077370;28;19908;-60
2022/03/10 05:10:53;;;;;;;;;;;4.60;84.10;;;;;;5077426;28;19912;-66
2022/03/10 05:13:37;;;;;;;;;;;4.60;84.40;;;;;;5076953;28;19920;-61
2022/03/10 05:16:07;;;;;;;;;;;4.50;84.50;;;;;;5077700;28;19966;-60
2022/03/10 05:18:39;;;;;;;;;;;4.50;84.50;;;;;;5076631;28;19908;-60
2022/03/10 05:21:06;;;;;;;;;;;4.60;84.70;;;;;;5077099;28;19917;-61
2022/03/10 05:23:34;;;;;;;;;;;4.50;84.60;;;;;;5057558;28;19995;-60
2022/03/10 05:26:02;;;;;;;;;;;4.50;84.60;;;;;;5057840;28;19956;-61
2022/03/10 05:28:29;;;;;;;;;;;4.50;84.90;;;;;;5040063;28;19916;-61
2022/03/10 05:31:03;;;;;;;;;;;4.40;85.20;;;;;;5076276;28;19923;-71
2022/03/10 05:33:30;;;;;;;;;;;4.40;85.30;;;;;;5075834;28;19913;-61
2022/03/10 05:36:02;;;;;;;;;;;4.40;85.40;;;;;;5058850;28;19912;-63
2022/03/10 05:38:31;;;;;;;;;;;4.30;85.40;;;;;;5074801;28;19909;-63
2022/03/10 05:41:00;;;;;;;;;;;4.40;85.30;;;;;;5075995;28;19909;-63
2022/03/10 05:43:28;;;;;;;;;;;4.40;85.30;;;;;;5057650;28;20011;-64
2022/03/10 05:45:54;;;;;;;;;;;4.30;85.70;;;;;;5075838;28;19981;-60
2022/03/10 05:48:20;;;;;;;;;;;4.30;85.60;;;;;;5074879;28;19955;-66
2022/03/10 05:50:45;;;;;;;;;;;4.40;85.70;;;;;;5072787;28;19919;-64
2022/03/10 05:53:11;;;;;;;;;;;4.40;85.80;;;;;;5047982;28;19928;-71
2022/03/10 05:55:37;;;;;;;;;;;4.30;85.90;;;;;;5055841;28;19955;-65
2022/03/10 05:58:04;;;;;;;;;;;4.40;85.80;;;;;;5066830;28;19956;-62
2022/03/10 06:00:29;;;;;;;;;;;4.40;85.80;;;;;;5053552;28;19954;-64
2022/03/10 06:02:55;;;;;;;;;;;4.40;85.90;;;;;;5056963;28;19909;-61
2022/03/10 06:05:20;;;;;;;;;;;4.40;86.10;;;;;;5063595;28;19940;-61
2022/03/10 06:07:46;;;;;;;;;;;4.50;86.00;;;;;;5054981;28;19908;-61
2022/03/10 06:10:11;;;;;;;;;;;4.50;85.90;;;;;;5058193;28;20412;-60
2022/03/10 06:12:37;;;;;;;;;;;4.60;85.90;;;;;;5075021;28;19935;-60
2022/03/10 06:15:04;;;;;;;;;;;4.60;85.70;;;;;;5069073;28;20282;-59
2022/03/10 06:17:30;;;;;;;;;;;4.70;85.30;;;;;;5055905;28;19915;-60
2022/03/10 06:19:56;;;;;;;;;;;4.70;85.30;;;;;;5075347;28;19909;-60
2022/03/10 06:22:23;;;;;;;;;;;4.70;85.20;;;;;;5074576;28;20297;-59
2022/03/10 06:24:49;;;;;;;;;;;4.80;85.10;;;;;;5082826;28;19924;-60
2022/03/10 06:27:15;;;;;;;;;;;4.80;85.20;;;;;;5094437;28;19919;-62
2022/03/10 06:29:41;;;;;;;;;;;4.90;84.90;;;;;;5064472;28;20003;-62
2022/03/10 06:32:07;;;;;;;;;;;5.00;84.70;;;;;;5089690;28;20007;-62
2022/03/10 06:34:32;;;;;;;;;;;4.90;84.60;;;;;;5085854;28;19919;-61
2022/03/10 06:36:58;;;;;;;;;;;5.10;84.60;;;;;;5076130;28;19908;-62
2022/03/10 06:39:24;;;;;;;;;;;5.20;83.70;;;;;;5076242;28;19915;-61
2022/03/10 06:41:49;;;;;;;;;;;5.20;83.90;;;;;;5065360;28;19915;-61
2022/03/10 06:44:15;;;;;;;;;;;5.00;83.70;;;;;;5056776;28;19916;-72
2022/03/10 06:46:40;;;;;;;;;;;5.20;83.80;;;;;;5074214;28;20457;-60
2022/03/10 06:49:06;;;;;;;;;;;5.30;83.50;;;;;;5072997;28;19952;-63
2022/03/10 06:51:31;;;;;;;;;;;5.50;82.90;;;;;;5073177;28;19912;-63
2022/03/10 06:53:57;;;;;;;;;;;5.50;82.20;;;;;;5084651;28;19927;-64
2022/03/10 06:56:23;;;;;;;;;;;5.70;81.70;;;;;;5078700;28;19913;-63
2022/03/10 06:58:48;;;;;;;;;;;5.80;81.00;;;;;;5068853;28;20393;-62
2022/03/10 07:01:14;;;;;;;;;;;6.30;80.30;;;;;;5077695;28;19913;-62
2022/03/10 07:03:39;;;;;;;;;;;6.50;79.20;;;;;;5065438;28;20311;-61
2022/03/10 07:06:05;;;;;;;;;;;6.80;78.30;;;;;;5080010;28;19908;-60
2022/03/10 07:08:31;;;;;;;;;;;6.90;77.70;;;;;;5076442;28;19912;-60
2022/03/10 07:10:56;;;;;;;;;;;7.20;78.10;;;;;;5069769;28;19981;-61
2022/03/10 07:13:22;;;;;;;;;;;7.40;76.60;;;;;;5083013;28;19959;-60
2022/03/10 07:15:47;;;;;;;;;;;7.70;77.90;;;;;;5081483;28;20357;-61
2022/03/10 07:18:13;;;;;;;;;;;7.40;77.10;;;;;;5068475;28;19915;-60
2022/03/10 07:20:38;;;;;;;;;;;7.40;77.00;;;;;;5075394;28;19966;-60
2022/03/10 07:23:04;;;;;;;;;;;7.70;77.40;;;;;;5077273;28;19931;-60
2022/03/10 07:25:29;;;;;;;;;;;7.80;76.00;;;;;;5093968;28;19924;-60
2022/03/10 07:27:55;;;;;;;;;;;8.20;76.40;;;;;;5066961;28;19908;-61
2022/03/10 07:30:21;;;;;;;;;;;8.40;75.20;;;;;;5067055;28;19987;-62
2022/03/10 07:32:46;;;;;;;;;;;8.60;74.00;;;;;;5092390;28;20275;-61
2022/03/10 07:35:12;;;;;;;;;;;8.80;72.60;;;;;;5086414;28;20406;-61
2022/03/10 07:37:37;;;;;;;;;;;8.80;71.90;;;;;;5079243;28;19912;-60
2022/03/10 07:40:03;;;;;;;;;;;8.70;72.60;;;;;;5068569;28;19913;-60
2022/03/10 07:42:29;;;;;;;;;;;9.20;71.90;;;;;;5072990;28;20007;-62
2022/03/10 07:44:54;;;;;;;;;;;9.40;71.20;;;;;;5066312;28;19960;-68
2022/03/10 07:47:20;;;;;;;;;;;9.80;69.70;;;;;;5088866;28;19913;-61
2022/03/10 07:49:45;;;;;;;;;;;9.60;70.00;;;;;;5086668;28;20270;-60
2022/03/10 07:52:11;;;;;;;;;;;9.80;69.70;;;;;;5085129;28;19955;-61
2022/03/10 07:54:38;;;;;;;;;;;8.60;71.80;;;;;;5087225;28;19912;-62
2022/03/10 07:57:04;;;;;;;;;;;9.00;71.60;;;;;;5067163;28;19916;-60
2022/03/10 07:59:29;;;;;;;;;;;9.60;70.60;;;;;;5086560;28;19912;-61
2022/03/10 08:01:55;;;;;;;;;;;10.00;69.20;;;;;;5063807;28;19916;-64
2022/03/10 08:04:21;;;;;;;;;;;9.30;70.70;;;;;;5054376;28;19915;-66
2022/03/10 08:06:47;;;;;;;;;;;10.10;69.40;;;;;;5072066;28;19908;-64
2022/03/10 08:09:12;;;;;;;;;;;10.20;68.40;;;;;;5079334;28;19931;-63
2022/03/10 08:11:39;;;;;;;;;;;10.40;68.00;;;;;;5077902;28;19916;-64
2022/03/10 08:14:05;;;;;;;;;;;10.10;68.60;;;;;;5093633;28;19926;-60
2022/03/10 08:16:31;;;;;;;;;;;9.30;69.50;;;;;;5088556;28;19915;-62
2022/03/10 08:18:57;;;;;;;;;;;10.00;69.40;;;;;;5073517;28;19908;-64
2022/03/10 08:21:22;;;;;;;;;;;10.70;67.60;;;;;;5061618;28;20007;-66
2022/03/10 08:23:48;;;;;;;;;;;10.90;66.80;;;;;;5076930;28;19920;-69
2022/03/10 08:26:13;;;;;;;;;;;11.40;66.30;;;;;;5091463;28;19993;-64
2022/03/10 08:28:39;;;;;;;;;;;11.50;64.70;;;;;;5077814;28;20338;-63
2022/03/10 08:31:05;;;;;;;;;;;10.30;66.10;;;;;;5092489;28;19930;-62
2022/03/10 08:33:32;;;;;;;;;;;10.60;66.70;;;;;;5094481;28;19912;-64
2022/03/10 08:35:57;;;;;;;;;;;11.00;66.30;;;;;;5073318;28;20378;-64
2022/03/10 08:38:23;;;;;;;;;;;11.80;65.10;;;;;;5077552;28;19947;-62
2022/03/10 08:40:49;;;;;;;;;;;12.30;62.70;;;;;;5096201;28;20277;-63
2022/03/10 08:43:15;;;;;;;;;;;12.80;63.50;;;;;;5077379;28;19912;-66
2022/03/10 08:45:41;;;;;;;;;;;13.80;86.60;;;;;;5096757;28;20222;-63
2022/03/10 08:48:07;;;;;;;;;;;13.90;64.40;;;;;;5076383;28;19909;-60
2022/03/10 08:50:32;;;;;;;;;;;12.20;63.90;;;;;;5078311;28;19908;-61
2022/03/10 08:52:58;;;;;;;;;;;13.00;63.60;;;;;;5075985;28;19924;-63
2022/03/10 08:55:23;;;;;;;;;;;13.40;64.40;;;;;;5085944;28;20007;-68
2022/03/10 08:57:49;;;;;;;;;;;14.10;62.20;;;;;;5067778;28;20003;-63
2022/03/10 09:00:15;;;;;;;;;;;13.60;61.10;;;;;;5073445;28;19909;-61
2022/03/10 09:02:41;;;;;;;;;;;14.40;60.90;;;;;;5075785;28;20270;-62
2022/03/10 09:05:08;;;;;;;;;;;14.70;59.60;;;;;;5094036;28;19916;-62
2022/03/10 09:07:34;;;;;;;;;;;15.10;59.60;;;;;;5089053;28;19908;-62
2022/03/10 09:10:00;;;;;;;;;;;;;;;;;;5063464;28;19970;-62
2022/03/10 09:12:27;;;;;;;;;;;15.90;57.30;;;;;;5083819;28;19931;-63
2022/03/10 09:14:52;;;;;;;;;;;16.10;57.00;;;;;;5081457;28;19925;-62
2022/03/10 09:17:19;;;;;;;;;;;16.60;56.70;;;;;;5077496;28;20235;-63
2022/03/10 09:19:44;;;;;;;;;;;16.90;56.40;;;;;;5055373;28;20345;-62
2022/03/10 09:22:10;;;;;;;;;;;16.70;55.40;;;;;;5083795;28;19966;-67
2022/03/10 09:24:36;;;;;;;;;;;16.70;55.10;;;;;;5061360;28;20055;-60
2022/03/10 09:27:01;;;;;;;;;;;16.40;55.50;;;;;;5064051;28;20294;-61
2022/03/10 09:29:27;;;;;;;;;;;16.40;55.40;;;;;;5069233;28;19908;-62
2022/03/10 09:31:52;;;;;;;;;;;16.80;55.20;;;;;;5072412;28;20391;-61
2022/03/10 09:34:18;;;;;;;;;;;17.00;53.70;;;;;;5072542;28;19920;-61
2022/03/10 09:36:44;;;;;;;;;;;17.00;54.10;;;;;;5078226;28;20161;-60
2022/03/10 09:39:09;;;;;;;;;;;16.90;54.10;;;;;;5071716;28;19919;-63
2022/03/10 09:41:37;;;;;;;;;;;17.00;54.60;;;;;;5090035;28;20011;-61
2022/03/10 09:44:11;;;;;;;;;;;17.30;54.60;;;;;;5074103;28;19908;-62
2022/03/10 09:46:37;;;;;;;;;;;17.90;53.30;;;;;;5090796;28;19965;-61
2022/03/10 09:49:03;;;;;;;;;;;16.60;53.60;;;;;;5092513;28;20003;-63
2022/03/10 09:51:29;;;;;;;;;;;16.90;53.90;;;;;;5091212;28;19943;-63
2022/03/10 09:53:54;;;;;;;;;;;17.00;54.00;;;;;;5092668;28;19924;-62
2022/03/10 09:56:20;;;;;;;;;;;17.30;53.30;;;;;;5092830;28;20323;-62
2022/03/10 09:58:45;;;;;;;;;;;18.20;52.80;;;;;;5073546;28;19954;-62
2022/03/10 10:01:11;;;;;;;;;;;18.00;52.50;;;;;;5074240;28;19943;-62
2022/03/10 10:03:37;;;;;;;;;;;16.70;53.20;;;;;;5091385;28;20268;-62
2022/03/10 10:06:02;;;;;;;;;;;16.80;53.90;;;;;;5092132;28;19908;-62
2022/03/10 10:08:30;;;;;;;;;;;17.90;53.90;;;;;;5091781;28;19908;-63
2022/03/10 10:10:56;;;;;;;;;;;17.60;52.50;;;;;;5092453;28;19908;-60
2022/03/10 10:13:39;;;;;;;;;;;18.20;52.30;;;;;;5074075;28;19926;-62
2022/03/10 10:16:07;;;;;;;;;;;17.70;53.00;;;;;;5092585;28;19924;-62
2022/03/10 10:18:34;;;;;;;;;;;18.50;53.20;;;;;;5073064;28;19923;-62
2022/03/10 10:20:59;;;;;;;;;;;19.10;52.10;;;;;;5091961;28;19951;-62
2022/03/10 10:23:31;;;;;;;;;;;19.80;51.20;;;;;;5092170;28;19923;-63
2022/03/10 10:25:57;;;;;;;;;;;19.80;50.20;;;;;;5011057;28;1791296;-62
2022/03/10 10:28:27;;;;;;;;;;;19.90;50.40;;;;;;5092783;28;19999;-62
2022/03/10 10:30:59;;;;;;;;;;;19.30;50.80;;;;;;5093179;28;20256;-63
2022/03/10 10:33:25;;;;;;;;;;;19.80;50.70;;;;;;5092680;28;20379;-62
2022/03/10 10:35:51;;;;;;;;;;;19.50;49.90;;;;;;5092002;28;19912;-62
2022/03/10 10:38:30;;;;;;;;;;;18.70;51.20;;;;;;5092552;28;19915;-61
2022/03/10 10:41:19;;;;;;;;;;;19.50;50.10;;;;;;5092548;28;19980;-62
2022/03/10 10:43:49;;;;;;;;;;;20.60;50.40;;;;;;5078145;28;19942;-62
2022/03/10 10:46:22;;;;;;;;;;;20.50;48.30;;;;;;5092862;28;20387;-60
2022/03/10 10:48:48;;;;;;;;;;;18.60;49.50;;;;;;5091728;28;20090;-63
2022/03/10 10:51:14;;;;;;;;;;;18.60;49.30;;;;;;5092290;28;20303;-62
2022/03/10 10:53:40;;;;;;;;;;;18.60;50.10;;;;;;5072374;28;19920;-63
2022/03/10 10:56:05;;;;;;;;;;;18.50;50.30;;;;;;5092276;28;19923;-62
2022/03/10 10:58:31;;;;;;;;;;;18.60;49.00;;;;;;5073296;28;19977;-63
2022/03/10 11:00:57;;;;;;;;;;;19.00;49.30;;;;;;5074147;28;19920;-62
2022/03/10 11:03:24;;;;;;;;;;;19.40;49.00;;;;;;5092036;28;20359;-62
2022/03/10 11:05:50;;;;;;;;;;;18.40;49.20;;;;;;5091463;28;19912;-62
2022/03/10 11:08:20;;;;;;;;;;;19.80;48.50;;;;;;5092261;28;19908;-63
2022/03/10 11:10:46;;;;;;;;;;;19.40;48.50;;;;;;5091403;28;19908;-64
2022/03/10 11:13:11;;;;;;;;;;;20.00;48.20;;;;;;5062720;28;19923;-61
2022/03/10 11:15:37;;;;;;;;;;;19.00;48.30;;;;;;5088790;28;19912;-63
2022/03/10 11:18:03;;;;;;;;;;;18.60;48.10;;;;;;5089722;28;19924;-63
2022/03/10 11:20:29;;;;;;;;;;;18.40;48.50;;;;;;5053252;28;19967;-63
2022/03/10 11:22:55;;;;;;;;;;;17.90;49.00;;;;;;5052679;28;19966;-65
2022/03/10 11:25:37;;;;;;;;;;;18.20;50.10;;;;;;5055433;28;19959;-62
2022/03/10 11:28:13;;;;;;;;;;;18.30;48.70;;;;;;5075260;28;20215;-62
2022/03/10 11:30:39;;;;;;;;;;;19.20;48.50;;;;;;5078588;28;19966;-63
2022/03/10 11:33:05;;;;;;;;;;;19.60;48.70;;;;;;5055591;28;20297;-61
2022/03/10 11:35:31;;;;;;;;;;;19.10;48.50;;;;;;5079442;28;19912;-63
2022/03/10 11:37:57;;;;;;;;;;;19.60;48.10;;;;;;5081003;28;19912;-63
2022/03/10 11:40:41;;;;;;;;;;;20.90;47.50;;;;;;5081578;28;19913;-63
2022/03/10 11:43:07;;;;;;;;;;;20.40;46.90;;;;;;5091490;28;19916;-62
2022/03/10 11:45:33;;;;;;;;;;;20.40;46.30;;;;;;5072375;28;20322;-71
2022/03/10 11:48:17;;;;;;;;;;;19.00;48.10;;;;;;5073275;28;19957;-64
2022/03/10 11:50:42;;;;;;;;;;;18.30;48.40;;;;;;5090615;28;19943;-62
2022/03/10 11:53:12;;;;;;;;;;;17.90;48.50;;;;;;5066554;28;19967;-64
2022/03/10 11:55:42;;;;;;;;;;;18.50;48.50;;;;;;5054758;28;19921;-62
2022/03/10 11:58:10;;;;;;;;;;;18.60;47.90;;;;;;5060593;28;19955;-62
2022/03/10 12:00:43;;;;;;;;;;;18.70;47.90;;;;;;5079692;28;19916;-63
2022/03/10 12:03:09;;;;;;;;;;;18.70;47.40;;;;;;5075739;28;19917;-63
2022/03/10 12:05:51;;;;;;;;;;;18.60;46.60;;;;;;5065341;28;20296;-63
2022/03/10 12:08:17;;;;;;;;;;;18.90;47.00;;;;;;5062747;28;19951;-63
2022/03/10 12:10:43;;;;;;;;;;;19.20;46.70;;;;;;5082595;28;19912;-60
2022/03/10 12:13:22;;;;;;;;;;;19.00;46.70;;;;;;5080431;28;19964;-67
2022/03/10 12:15:49;;;;;;;;;;;18.60;46.80;;;;;;5076842;28;19948;-62
2022/03/10 12:18:15;;;;;;;;;;;19.60;46.90;;;;;;5061953;28;19912;-62
2022/03/10 12:20:41;;;;;;;;;;;19.60;45.80;;;;;;5081623;28;20358;-68
2022/03/10 12:23:09;;;;;;;;;;;18.80;46.50;;;;;;5064389;28;19922;-62
2022/03/10 12:25:42;;;;;;;;;;;18.90;46.00;;;;;;5060351;28;19983;-75
2022/03/10 12:28:09;;;;;;;;;;;19.40;46.60;;;;;;5076308;28;19912;-63
2022/03/10 12:30:39;;;;;;;;;;;20.30;45.40;;;;;;5080305;28;19974;-69
2022/03/10 12:33:05;;;;;;;;;;;20.70;45.40;;;;;;5065892;28;20404;-65
2022/03/10 12:35:32;;;;;;;;;;;20.70;44.80;;;;;;5076228;28;19947;-70
2022/03/10 12:37:58;;;;;;;;;;;19.50;45.20;;;;;;5080801;28;20322;-62
2022/03/10 12:40:26;;;;;;;;;;;18.70;46.50;;;;;;5077902;28;20067;-62
2022/03/10 12:42:57;;;;;;;;;;;20.10;45.90;;;;;;5061837;28;19919;-61
2022/03/10 12:45:22;;;;;;;;;;;20.30;45.90;;;;;;5059639;28;20317;-64
2022/03/10 12:47:53;;;;;;;;;;;21.50;44.70;;;;;;5058646;28;19917;-66
2022/03/10 12:50:19;;;;;;;;;;;21.60;51.80;;;;;;5059597;28;20392;-69
2022/03/10 12:52:44;;;;;;;;;;;20.90;48.30;;;;;;5076753;28;20077;-71
2022/03/10 12:55:10;;;;;;;;;;;20.70;46.60;;;;;;5061650;28;19974;-71
2022/03/10 12:57:37;;;;;;;;;;;20.50;47.20;;;;;;5066860;28;19912;-71
2022/03/10 13:00:18;;;;;;;;;;;20.90;51.70;;;;;;5085472;28;19919;-62
2022/03/10 13:02:44;;;;;;;;;;;19.70;46.20;;;;;;5081556;28;20342;-55
2022/03/10 13:05:10;;;;;;;;;;;20.20;50.10;;;;;;5060131;28;19917;-53
2022/03/10 13:07:38;;;;;;;;;;;20.70;49.20;;;;;;5061111;28;19912;-85
2022/03/10 13:10:13;;;;;;;;;;;20.10;47.00;;;;;;5062704;28;19913;-62
2022/03/10 13:12:39;;;;;;;;;;;19.10;45.60;;;;;;5060092;28;20001;-63
2022/03/10 13:15:20;;;;;;;;;;;19.50;45.70;;;;;;5084060;28;19920;-62
2022/03/10 13:17:45;;;;;;;;;;;19.40;46.10;;;;;;5062502;28;19912;-64
2022/03/10 13:20:12;;;;;;;;;;;20.10;46.00;;;;;;5065077;28;19969;-64
2022/03/10 13:22:43;;;;;;;;;;;19.80;45.50;;;;;;5065151;28;19913;-65
2022/03/10 13:25:08;;;;;;;;;;;19.50;45.90;;;;;;5068378;28;20327;-63
2022/03/10 13:27:34;;;;;;;;;;;19.30;46.10;;;;;;5062700;28;19939;-63
2022/03/10 13:29:59;;;;;;;;;;;20.00;45.70;;;;;;5057148;28;19916;-63
2022/03/10 13:32:26;;;;;;;;;;;21.10;45.30;;;;;;5063720;28;20349;-63
2022/03/10 13:34:54;;;;;;;;;;;21.30;44.90;;;;;;5055704;28;19925;-63
2022/03/10 13:37:20;;;;;;;;;;;21.60;44.50;;;;;;5040694;28;20283;-63
2022/03/10 13:39:46;;;;;;;;;;;20.90;44.50;;;;;;5059897;28;19959;-62
2022/03/10 13:42:12;;;;;;;;;;;19.70;45.00;;;;;;5056932;28;19908;-63
2022/03/10 13:44:38;;;;;;;;;;;19.60;45.70;;;;;;5053273;28;19948;-82
2022/03/10 13:47:07;;;;;;;;;;;21.10;44.40;;;;;;5060716;28;20298;-64
2022/03/10 13:49:46;;;;;;;;;;;21.20;43.60;;;;;;5053424;28;19913;-62
2022/03/10 13:52:13;;;;;;;;;;;19.70;44.60;;;;;;5046084;28;19992;-63
2022/03/10 13:54:39;;;;;;;;;;;20.20;44.40;;;;;;5048189;28;20015;-84
2022/03/10 13:57:04;;;;;;;;;;;20.20;44.00;;;;;;5063665;28;20551;-68
2022/03/10 13:59:30;;;;;;;;;;;19.90;44.10;;;;;;5044994;28;19920;-67
2022/03/10 14:01:56;;;;;;;;;;;20.70;44.70;;;;;;5038316;28;19918;-70
2022/03/10 14:04:22;;;;;;;;;;;20.50;43.10;;;;;;5069526;28;20551;-66
2022/03/10 14:06:48;;;;;;;;;;;19.50;44.10;;;;;;5051235;28;19920;-69
2022/03/10 14:09:17;;;;;;;;;;;18.70;44.90;;;;;;5065047;28;19917;-67
2022/03/10 14:11:43;;;;;;;;;;;18.50;45.10;;;;;;5049746;28;20333;-71
2022/03/10 14:14:09;;;;;;;;;;;19.10;45.60;;;;;;5048009;28;19925;-63
2022/03/10 14:16:34;;;;;;;;;;;19.90;43.60;;;;;;5035932;28;20065;-67
2022/03/10 14:19:04;;;;;;;;;;;20.20;43.70;;;;;;5068188;28;20374;-67
2022/03/10 14:21:30;;;;;;;;;;;19.90;43.70;;;;;;5068293;28;20253;-64
2022/03/10 14:23:59;;;;;;;;;;;18.60;45.00;;;;;;5056090;28;20449;-68
2022/03/10 14:26:25;;;;;;;;;;;18.90;45.30;;;;;;5060809;28;19920;-66
2022/03/10 14:28:53;;;;;;;;;;;19.50;44.60;;;;;;5086383;28;20363;-63
2022/03/10 14:31:21;;;;;;;;;;;18.80;44.10;;;;;;5072678;28;19912;-64
2022/03/10 14:33:47;;;;;;;;;;;18.30;45.00;;;;;;5089368;28;19991;-64